ADDS METAR Data INFO
IDs: Format: Raw Decoded Include TAF

Data at: 1951 UTC 15 Dec 2017

KAPA 151853Z 27004KT 10SM FEW120 FEW200 13/M13 A3000 RMK AO2 SLP165 T01281128
KAPA 151753Z 23010KT 10SM FEW150 FEW200 11/M11 A3002 RMK AO2 SLP181 T01061111 10106 21050 58001
KAPA 151653Z 23008KT 10SM FEW120 08/M11 A3004 RMK AO2 SLP190 T00831111
KAPA 151553Z 22008KT 10SM FEW150 06/M12 A3003 RMK AO2 SLP195 T00561122
KAPA 151453Z 19008KT 10SM FEW100 FEW200 M01/M12 A3003 RMK AO2 SLP205 T10061122 56013
KAPA 151353Z 22011KT 10SM FEW100 FEW220 02/M14 A3003 RMK AO2 SLP201 T00171139
KAPA 151253Z 20010KT 10SM CLR M03/M13 A3005 RMK AO2 SLP215 T10281133
KAPA 151153Z 20009KT 10SM CLR M04/M13 A3007 RMK AO2 SLP224 T10391133 11033 21072 58015
KAPA 151053Z 20005KT 10SM CLR M04/M14 A3010 RMK AO2 SLP234 T10391139
KAPA 150953Z 15003KT 10SM CLR M05/M13 A3012 RMK AO2 SLP240 T10501128
KAPA 150853Z 20006KT 10SM CLR M06/M12 A3012 RMK AO2 SLP240 T10561122 56019
KAPA 150753Z 16005KT 10SM CLR M04/M11 A3014 RMK AO2 SLP239 T10441111
KAPA 150653Z 18007KT 10SM CLR M06/M09 A3017 RMK AO2 SLP254 T10611094 400221072
KAPA 150553Z 18007KT 10SM CLR M06/M08 A3019 RMK AO2 SLP267 T10611083 11022 21072 58013
KAPA 150453Z 19005KT 10SM CLR M07/M08 A3021 RMK AO2 SLP276 T10671083
KAPA 150353Z 18006KT 10SM CLR M06/M09 A3023 RMK AO2 SLP285 T10561089
KAPA 150253Z 19004KT 10SM CLR M04/M08 A3024 RMK AO2 SLP288 T10441078 51003
KAPA 150153Z 19003KT 10SM CLR M04/M07 A3024 RMK AO2 SLP285 T10391072
KAPA 150053Z 18005KT 10SM FEW120 FEW220 M03/M06 A3023 RMK AO2 SLP279 T10331061
KAPA 142353Z 15004KT 10SM FEW047 FEW090 FEW220 M02/M06 A3023 RMK AO2 SLP275 T10221056 10022 21028 51010
KAPA 142253Z 13005KT 10SM SCT050 BKN090 M02/M05 A3022 RMK AO2 SLP270 T10171050
KAPA 142153Z 02008KT 10SM SCT034 BKN055 OVC080 00/M06 A3021 RMK AO2 SLP262 T00001056
KAPA 142053Z 04012KT 10SM BKN034 BKN055 01/M04 A3019 RMK AO2 SLP254 T00061039 55007
KAPA 141953Z 36009KT 10SM BKN034 BKN055 02/M06 A3018 RMK AO2 SLP246 T00171056
KAPA 141853Z 36008KT 10SM BKN034 OVC055 01/M05 A3020 RMK AO2 SLP252 T00111050
KAPA 141753Z 00000KT 10SM BKN055 BKN080 01/M06 A3022 RMK AO2 SLP254 60000 T00061056 10006 21044 53003
KAPA 141653Z 19005KT 10SM SCT045 SCT120 M01/M04 A3021 RMK AO2 SLP250 T10061039
KAPA 141553Z 20003KT 10SM SCT048 SCT120 M02/M04 A3020 RMK AO2 SLP250 T10221044
KAPA 141453Z 21005KT 10SM FEW018 BKN048 M04/M05 A3020 RMK AO2 SNB1355E32 SLP255 P0000 60000 T10391050 50002 $
KAPA 141424Z 25005KT 3SM -SN BR FEW010 SCT018 OVC040 M03/M04 A3021 RMK AO2 SNB1355 P0000 T10331039 $
KAPA 141353Z 23007KT 2SM BR FEW012 SCT018 OVC043 M03/M03 A3021 RMK AO2 SFC VIS 4 SNE30 SLP248 P0000 T10281033 $
KAPA 141328Z 24007KT 2SM -SN BR FEW012 SCT018 OVC043 M03/M03 A3020 RMK AO2 SFC VIS 3 P0000 T10281033 $
KAPA 141253Z 29005KT 2SM -SN BR FEW007 BKN018 OVC043 M03/M03 A3020 RMK AO2 SLP248 P0000 T10281033 $
KAPA 141153Z 33005KT 2SM -SN BR SCT009 SCT015 OVC036 M03/M03 A3020 RMK AO2 SLP244 P0001 60005 70005 T10281033 10017 21028 51007
KAPA 141053Z 36011KT 2SM -SN BR BKN005 BKN014 OVC028 M02/M03 A3019 RMK AO2 CIG 004V009 SLP235 P0001 T10221028
KAPA 140953Z 02010KT 2SM -SN BR BKN006 BKN012 OVC018 M02/M03 A3018 RMK AO2 SLP229 P0002 T10221033
KAPA 140853Z 02006KT 2SM -SN BR BKN006 BKN012 OVC019 M02/M02 A3017 RMK AO2 CIG 004V007 SLP225 P0001 60001 T10171022 53004
KAPA 140831Z 01007KT 1 3/4SM -SN BR SCT004 BKN008 OVC012 M02/M02 A3017 RMK AO2 P0001 T10171022
KAPA 140821Z 34005KT 2SM -SN BR FEW004 BKN014 OVC018 M02/M02 A3016 RMK AO2 P0001 T10171022
KAPA 140814Z 02005KT 1 3/4SM -SN BR BKN014 OVC022 M02/M02 A3016 RMK AO2 P0000 T10171022
KAPA 140753Z 03003KT 1 3/4SM -SN BR SCT020 BKN026 OVC030 M02/M02 A3016 RMK AO2 SLP221 P0000 T10171022